createdAt,value
2023-03-05T00:02:04.758Z,6.75
2023-03-05T00:04:51.826Z,18.38
2023-03-05T00:07:37.408Z,9.27
2023-03-05T00:10:22.964Z,10.10
2023-03-05T00:13:08.538Z,9.30
2023-03-05T00:15:54.473Z,13.95
2023-03-05T00:18:41.429Z,1.88
2023-03-05T00:21:32.165Z,9.05
2023-03-05T00:24:18.770Z,6.03
2023-03-05T00:27:04.585Z,6.03
2023-03-05T00:29:50.249Z,4.13
2023-03-05T00:32:36.414Z,5.45
2023-03-05T00:35:22.040Z,2.33
2023-03-05T00:38:07.496Z,4.90
2023-03-05T00:40:53.132Z,3.40
2023-03-05T00:43:38.682Z,6.82
2023-03-05T00:46:26.946Z,9.82
2023-03-05T00:49:12.684Z,10.63
2023-03-05T00:51:58.295Z,7.72
2023-03-05T00:54:43.874Z,7.20
2023-03-05T00:57:29.927Z,8.70
2023-03-05T01:00:16.649Z,12.18
2023-03-05T01:03:02.289Z,5.93
2023-03-05T01:05:48.007Z,7.38
2023-03-05T01:08:34.155Z,8.10
2023-03-05T01:11:19.534Z,5.10
2023-03-05T01:14:05.220Z,4.07
2023-03-05T01:16:50.709Z,7.13
2023-03-05T01:19:36.340Z,6.20
2023-03-05T01:22:21.581Z,4.25
2023-03-05T01:25:07.338Z,6.07
2023-03-05T01:27:52.821Z,7.28
2023-03-05T01:30:38.401Z,5.05
2023-03-05T01:33:23.716Z,7.95
2023-03-05T01:36:13.547Z,7.40
2023-03-05T01:38:59.240Z,15.73
2023-03-05T01:41:44.834Z,10.13
2023-03-05T01:44:30.909Z,9.93
2023-03-05T01:47:18.186Z,14.88
2023-03-05T01:50:07.180Z,13.02
2023-03-05T01:52:59.428Z,16.02
2023-03-05T01:55:45.406Z,15.60
2023-03-05T01:58:30.757Z,14.48
2023-03-05T02:01:17.169Z,13.25
2023-03-05T02:04:03.277Z,15.02
2023-03-05T02:06:49.918Z,19.52
2023-03-05T02:09:39.722Z,18.95
2023-03-05T02:12:25.934Z,19.70
2023-03-05T02:15:12.677Z,22.30
2023-03-05T02:17:58.238Z,18.90
2023-03-05T02:20:57.263Z,23.55
2023-03-05T02:23:42.980Z,68.03
2023-03-05T02:26:28.642Z,68.05
2023-03-05T02:29:19.173Z,69.18
2023-03-05T02:32:04.967Z,52.20
2023-03-05T02:34:50.661Z,48.55
2023-03-05T02:37:36.742Z,41.60
2023-03-05T02:40:22.879Z,36.92
2023-03-05T02:43:09.276Z,23.38
2023-03-05T02:45:55.188Z,17.27
2023-03-05T02:48:41.266Z,14.05
2023-03-05T02:51:29.186Z,19.83
2023-03-05T02:54:15.056Z,20.35
2023-03-05T02:57:00.923Z,10.80
2023-03-05T02:59:46.970Z,12.20
2023-03-05T03:02:32.538Z,16.60
2023-03-05T03:05:18.213Z,13.93
2023-03-05T03:08:04.224Z,11.93
2023-03-05T03:10:49.891Z,8.10
2023-03-05T03:13:35.614Z,3.30
2023-03-05T03:16:21.764Z,3.30
2023-03-05T03:19:07.686Z,5.95
2023-03-05T03:21:55.153Z,4.93
2023-03-05T03:24:41.923Z,5.10
2023-03-05T03:27:27.629Z,4.35
2023-03-05T03:30:14.444Z,6.90
2023-03-05T03:33:00.178Z,5.45
2023-03-05T03:35:46.509Z,2.17
2023-03-05T03:38:32.072Z,9.73
2023-03-05T03:41:18.904Z,5.35
2023-03-05T03:44:07.145Z,4.40
2023-03-05T03:46:54.277Z,6.15
2023-03-05T03:49:39.689Z,4.03
2023-03-05T03:52:26.494Z,6.30
2023-03-05T03:55:12.114Z,4.78
2023-03-05T03:57:57.722Z,5.53
2023-03-05T04:00:43.254Z,8.52
2023-03-05T04:03:28.735Z,5.60
2023-03-05T04:06:15.454Z,4.38
2023-03-05T04:09:01.040Z,7.10
2023-03-05T04:11:46.677Z,17.05
2023-03-05T04:14:32.384Z,6.45
2023-03-05T04:17:17.715Z,7.25
2023-03-05T04:20:05.114Z,3.58
2023-03-05T04:22:50.587Z,4.32
2023-03-05T04:25:36.033Z,4.65
2023-03-05T04:28:21.732Z,7.97
2023-03-05T04:31:07.217Z,16.63
2023-03-05T04:33:52.786Z,14.48
2023-03-05T04:36:38.453Z,19.40
2023-03-05T04:39:24.329Z,13.50
2023-03-05T04:42:10.629Z,19.23
2023-03-05T04:44:56.089Z,13.57
2023-03-05T04:47:42.001Z,22.95
2023-03-05T04:50:27.378Z,22.35
2023-03-05T04:53:13.539Z,26.42
2023-03-05T04:56:01.590Z,27.33
2023-03-05T04:58:47.660Z,33.85
2023-03-05T05:01:35.460Z,22.15
2023-03-05T05:04:21.095Z,23.70
2023-03-05T05:07:07.842Z,28.88
2023-03-05T05:09:53.270Z,23.42
2023-03-05T05:12:38.965Z,15.18
2023-03-05T05:15:24.605Z,15.40
2023-03-05T05:18:10.191Z,35.45
2023-03-05T05:20:56.048Z,55.72
2023-03-05T05:23:41.803Z,40.67
2023-03-05T05:26:27.875Z,35.05
2023-03-05T05:29:15.100Z,28.48
2023-03-05T05:32:00.683Z,15.77
2023-03-05T05:34:51.661Z,23.05
2023-03-05T05:37:37.326Z,24.55
2023-03-05T05:40:22.879Z,33.67
2023-03-05T05:43:08.964Z,25.30
2023-03-05T05:45:54.424Z,39.17
2023-03-05T05:48:40.323Z,34.70
2023-03-05T05:51:25.734Z,27.20
2023-03-05T05:54:15.408Z,17.23
2023-03-05T05:57:04.209Z,15.32
2023-03-05T05:59:50.000Z,13.82
2023-03-05T06:02:41.641Z,11.27
2023-03-05T06:05:28.069Z,11.93
2023-03-05T06:08:14.256Z,15.57
2023-03-05T06:10:59.806Z,16.40
2023-03-05T06:13:45.962Z,7.38
2023-03-05T06:16:31.236Z,7.47
2023-03-05T06:19:17.050Z,3.35
2023-03-05T06:22:03.078Z,7.20
2023-03-05T06:24:48.722Z,4.70
2023-03-05T06:27:38.377Z,7.55
2023-03-05T06:30:23.912Z,3.80
2023-03-05T06:33:21.416Z,4.50
2023-03-05T06:36:19.758Z,4.10
2023-03-05T06:39:05.452Z,3.90
2023-03-05T06:41:52.208Z,8.00
2023-03-05T06:44:40.287Z,13.02
2023-03-05T06:47:25.547Z,8.77
2023-03-05T06:50:13.951Z,6.32
2023-03-05T06:52:59.476Z,5.38
2023-03-05T06:55:45.521Z,4.78
2023-03-05T06:58:31.414Z,3.03
2023-03-05T07:01:16.984Z,4.43
2023-03-05T07:04:03.380Z,13.05
2023-03-05T07:06:51.583Z,3.20
2023-03-05T07:09:57.551Z,5.20
2023-03-05T07:12:54.455Z,5.10
2023-03-05T07:16:00.378Z,7.53
2023-03-05T07:19:00.985Z,3.83
2023-03-05T07:21:48.190Z,4.85
2023-03-05T07:24:35.618Z,4.68
2023-03-05T07:27:26.140Z,3.58
2023-03-05T07:30:12.995Z,9.40
2023-03-05T07:32:58.758Z,3.05
2023-03-05T07:35:44.291Z,4.18
2023-03-05T07:38:30.035Z,6.63
2023-03-05T07:41:20.082Z,8.40
2023-03-05T07:44:06.275Z,7.07
2023-03-05T07:46:54.240Z,7.40
2023-03-05T07:49:41.780Z,4.63
2023-03-05T07:52:35.886Z,5.30
2023-03-05T07:55:21.560Z,2.50
2023-03-05T07:58:08.984Z,8.45
2023-03-05T08:00:54.933Z,6.28
2023-03-05T08:03:44.697Z,1.70
2023-03-05T08:06:30.742Z,4.20
2023-03-05T08:09:17.836Z,3.55
2023-03-05T08:12:33.969Z,8.60
2023-03-05T08:15:34.430Z,2.42
2023-03-05T08:21:36.786Z,5.78
2023-03-05T08:24:37.034Z,2.38
2023-03-05T08:27:40.834Z,3.30
2023-03-05T08:34:00.210Z,1.30
2023-03-05T08:37:04.520Z,2.83
2023-03-05T08:40:02.466Z,8.07
2023-03-05T08:43:06.932Z,6.95
2023-03-05T08:46:17.914Z,1.50
2023-03-05T08:49:12.694Z,2.60
2023-03-05T08:52:46.460Z,4.68
2023-03-05T08:55:58.189Z,6.15
2023-03-05T08:58:56.210Z,4.45
2023-03-05T09:02:12.499Z,3.58
2023-03-05T09:04:57.764Z,4.45
2023-03-05T09:07:55.205Z,4.03
2023-03-05T09:11:26.929Z,3.30
2023-03-05T09:14:23.367Z,6.80
2023-03-05T09:17:31.252Z,4.57
2023-03-05T09:20:30.310Z,2.05
2023-03-05T09:26:21.824Z,4.80
2023-03-05T09:29:08.940Z,3.00
2023-03-05T09:31:57.689Z,5.18
2023-03-05T09:35:11.179Z,6.20
2023-03-05T09:37:59.400Z,5.82
2023-03-05T09:41:07.373Z,5.22
2023-03-05T09:44:14.856Z,2.08
2023-03-05T09:47:15.436Z,4.28
2023-03-05T09:50:25.049Z,3.70
2023-03-05T09:53:22.619Z,5.28
2023-03-05T10:00:09.176Z,4.82
2023-03-05T10:03:04.249Z,7.03
2023-03-05T10:05:58.587Z,5.40
2023-03-05T10:08:52.131Z,8.93
2023-03-05T10:12:02.383Z,2.97
2023-03-05T10:14:50.756Z,5.65
2023-03-05T10:18:46.718Z,4.15
2023-03-05T10:21:53.158Z,8.07
2023-03-05T10:25:11.010Z,8.82
2023-03-05T10:28:05.922Z,8.90
2023-03-05T10:31:18.353Z,7.55
2023-03-05T10:34:49.980Z,7.55
2023-03-05T10:37:54.625Z,16.00
2023-03-05T10:41:05.515Z,10.02
2023-03-05T10:43:57.951Z,19.27
2023-03-05T10:46:46.005Z,8.13
2023-03-05T10:49:50.407Z,9.55
2023-03-05T10:52:50.970Z,4.90
2023-03-05T10:55:40.329Z,5.45
2023-03-05T10:58:28.200Z,8.93
2023-03-05T11:01:15.617Z,8.85
2023-03-05T11:04:06.854Z,7.63
2023-03-05T11:06:52.557Z,8.73
2023-03-05T11:09:38.333Z,7.80
2023-03-05T11:12:28.124Z,11.60
2023-03-05T11:15:13.518Z,15.40
2023-03-05T11:18:25.471Z,6.97
2023-03-05T11:21:24.818Z,11.87
2023-03-05T11:24:19.887Z,10.40
2023-03-05T11:27:32.512Z,9.98
2023-03-05T11:30:32.574Z,16.00
2023-03-05T11:33:24.316Z,11.88
2023-03-05T11:36:35.624Z,7.72
2023-03-05T11:39:23.905Z,8.45
2023-03-05T11:42:26.253Z,5.60
2023-03-05T11:48:18.864Z,12.45
2023-03-05T11:51:18.307Z,7.72
2023-03-05T11:54:08.959Z,6.18
2023-03-05T11:56:55.321Z,6.03
2023-03-05T11:59:44.716Z,5.20
2023-03-05T12:02:30.226Z,5.97
2023-03-05T12:05:17.413Z,5.38
2023-03-05T12:08:05.788Z,7.18
2023-03-05T12:10:53.018Z,13.18
2023-03-05T12:13:45.335Z,4.78
2023-03-05T12:16:51.772Z,13.00
2023-03-05T12:19:41.580Z,16.17
2023-03-05T12:22:36.594Z,10.88
2023-03-05T12:25:35.213Z,13.18
2023-03-05T12:28:55.794Z,23.88
2023-03-05T12:31:44.287Z,21.92
2023-03-05T12:34:41.003Z,11.50
2023-03-05T12:37:28.170Z,15.18
2023-03-05T12:40:23.049Z,9.48
2023-03-05T12:43:30.323Z,11.82
2023-03-05T12:46:23.780Z,10.32
2023-03-05T12:49:19.129Z,11.75
2023-03-05T12:52:12.679Z,5.00
2023-03-05T12:55:15.388Z,7.32
2023-03-05T13:01:29.401Z,5.07
2023-03-05T13:04:21.434Z,13.20
2023-03-05T13:07:15.152Z,16.42
2023-03-05T13:10:00.742Z,15.13
2023-03-05T13:12:55.668Z,15.90
2023-03-05T13:15:46.454Z,13.23
2023-03-05T13:18:33.347Z,12.77
2023-03-05T13:21:24.622Z,6.60
2023-03-05T13:24:19.785Z,6.97
2023-03-05T13:27:30.081Z,12.02
2023-03-05T13:30:31.127Z,7.22
2023-03-05T13:33:26.029Z,6.43
2023-03-05T13:36:16.173Z,9.20
2023-03-05T13:39:04.159Z,12.40
2023-03-05T13:42:00.915Z,7.85
2023-03-05T13:45:17.875Z,6.97
2023-03-05T13:48:07.470Z,7.50
2023-03-05T13:50:58.769Z,7.32
2023-03-05T13:53:49.279Z,7.88
2023-03-05T13:56:35.015Z,6.65
2023-03-05T13:59:23.042Z,11.40
2023-03-05T14:02:20.897Z,10.68
2023-03-05T14:05:15.422Z,8.02
2023-03-05T14:08:02.005Z,10.32
2023-03-05T14:10:48.570Z,22.70
2023-03-05T14:13:35.089Z,15.90
2023-03-05T14:16:32.662Z,6.45
2023-03-05T14:19:45.205Z,9.30
2023-03-05T14:22:37.466Z,15.55
2023-03-05T14:25:39.988Z,22.70
2023-03-05T14:28:29.331Z,19.02
2023-03-05T14:31:18.433Z,11.10
2023-03-05T14:34:07.300Z,24.25
2023-03-05T14:36:55.258Z,22.67
2023-03-05T14:39:51.741Z,16.58
2023-03-05T14:42:56.513Z,13.90
2023-03-05T14:45:43.825Z,16.75
2023-03-05T14:48:29.361Z,9.00
2023-03-05T14:51:15.145Z,7.50
2023-03-05T14:54:00.577Z,10.95
2023-03-05T14:56:46.300Z,12.55
2023-03-05T14:59:31.955Z,19.42
2023-03-05T15:02:20.516Z,12.35
2023-03-05T15:07:59.022Z,14.57
2023-03-05T15:10:45.122Z,11.48
2023-03-05T15:13:31.850Z,23.50
2023-03-05T15:16:19.857Z,21.48
2023-03-05T15:19:05.896Z,22.38
2023-03-05T15:21:56.733Z,25.60
2023-03-05T15:24:42.545Z,34.92
2023-03-05T15:27:29.556Z,20.73
2023-03-05T15:30:41.203Z,15.77
2023-03-05T15:33:28.503Z,23.73
2023-03-05T15:36:15.593Z,33.83
2023-03-05T15:39:01.479Z,28.17
2023-03-05T15:41:47.254Z,11.52
2023-03-05T15:44:33.533Z,29.25
2023-03-05T15:47:20.947Z,11.85
2023-03-05T15:50:23.356Z,16.35
2023-03-05T15:53:10.369Z,19.35
2023-03-05T15:55:56.068Z,19.40
2023-03-05T15:58:43.453Z,11.05
2023-03-05T16:01:28.906Z,28.85
2023-03-05T16:04:15.786Z,16.95
2023-03-05T16:07:03.896Z,17.27
2023-03-05T16:09:51.138Z,41.90
2023-03-05T16:12:40.961Z,32.28
2023-03-05T16:15:33.716Z,30.08
2023-03-05T16:18:20.318Z,18.08
2023-03-05T16:21:09.335Z,15.15
2023-03-05T16:23:54.778Z,15.80
2023-03-05T16:26:41.942Z,14.75
2023-03-05T16:29:30.800Z,16.50
2023-03-05T16:32:17.917Z,33.10
2023-03-05T16:35:03.665Z,27.65
2023-03-05T16:37:49.654Z,16.33
2023-03-05T16:41:06.045Z,17.95
2023-03-05T16:43:45.640Z,15.77
2023-03-05T16:46:34.622Z,88.18
2023-03-05T16:49:21.022Z,69.90
2023-03-05T16:52:18.261Z,238.02
2023-03-05T16:55:05.869Z,202.73
2023-03-05T16:57:51.190Z,60.63
2023-03-05T17:00:36.707Z,36.90
2023-03-05T17:03:22.896Z,39.20
2023-03-05T17:06:12.580Z,48.15
2023-03-05T17:08:58.856Z,88.55
2023-03-05T17:11:44.229Z,40.90
2023-03-05T17:14:30.161Z,14.60
2023-03-05T17:17:17.109Z,15.68
2023-03-05T17:20:02.656Z,26.77
2023-03-05T17:22:48.451Z,13.82
2023-03-05T17:25:34.056Z,10.95
2023-03-05T17:28:20.189Z,8.55
2023-03-05T17:31:06.570Z,8.20
2023-03-05T17:33:54.812Z,8.20
2023-03-05T17:36:40.642Z,5.75
2023-03-05T17:39:26.513Z,9.38
2023-03-05T17:42:12.061Z,9.10
2023-03-05T17:44:59.298Z,7.38
2023-03-05T17:47:44.692Z,6.75
2023-03-05T17:50:30.726Z,9.50
2023-03-05T17:53:15.997Z,14.00
2023-03-05T17:56:02.314Z,6.72
2023-03-05T17:58:49.890Z,8.27
2023-03-05T18:01:35.699Z,4.85
2023-03-05T18:04:21.709Z,3.42
2023-03-05T18:07:07.414Z,4.30
2023-03-05T18:09:53.288Z,9.73
2023-03-05T18:12:39.069Z,5.15
2023-03-05T18:15:26.167Z,6.05
2023-03-05T18:18:11.789Z,6.60
2023-03-05T18:20:57.292Z,6.38
2023-03-05T18:23:42.872Z,11.70
2023-03-05T18:26:28.436Z,12.20
2023-03-05T18:29:13.946Z,9.48
2023-03-05T18:32:00.608Z,12.07
2023-03-05T18:34:45.981Z,137.80
2023-03-05T18:37:31.644Z,17.02
2023-03-05T18:40:22.931Z,16.27
2023-03-05T18:43:09.763Z,12.52
2023-03-05T18:45:55.964Z,10.07
2023-03-05T18:48:41.279Z,8.10
2023-03-05T18:51:28.522Z,9.45
2023-03-05T18:54:14.471Z,8.23
2023-03-05T18:57:00.270Z,10.25
2023-03-05T18:59:45.986Z,17.65
2023-03-05T19:02:31.172Z,17.30
2023-03-05T19:05:18.526Z,18.50
2023-03-05T19:08:04.258Z,32.35
2023-03-05T19:10:49.443Z,11.30
2023-03-05T19:13:42.147Z,19.63
2023-03-05T19:16:33.849Z,9.23
2023-03-05T19:19:24.570Z,13.27
2023-03-05T19:22:11.525Z,16.80
2023-03-05T19:24:57.669Z,12.32
2023-03-05T19:27:43.707Z,11.65
2023-03-05T19:30:30.490Z,18.73
2023-03-05T19:33:16.752Z,12.68
2023-03-05T19:36:02.393Z,13.95
2023-03-05T19:38:49.625Z,18.02
2023-03-05T19:41:36.341Z,24.13
2023-03-05T19:44:22.704Z,27.73
2023-03-05T19:47:10.619Z,18.90
2023-03-05T19:49:59.520Z,30.35
2023-03-05T19:52:45.531Z,20.40
2023-03-05T19:55:31.242Z,23.92
2023-03-05T19:58:16.898Z,21.83
2023-03-05T20:01:15.515Z,21.95
2023-03-05T20:04:03.315Z,21.20
2023-03-05T20:06:49.517Z,27.02
2023-03-05T20:09:35.635Z,20.73
2023-03-05T20:12:24.326Z,26.67
2023-03-05T20:15:10.042Z,26.08
2023-03-05T20:17:58.226Z,18.85
2023-03-05T20:20:43.838Z,19.60
2023-03-05T20:23:29.421Z,18.08
2023-03-05T20:26:14.959Z,19.60
2023-03-05T20:29:00.356Z,16.17
2023-03-05T20:31:47.054Z,11.23
2023-03-05T20:34:32.837Z,14.63
2023-03-05T20:38:12.836Z,9.75
2023-03-05T20:43:52.196Z,17.60
2023-03-05T20:47:32.357Z,19.27
2023-03-05T20:50:23.683Z,17.65
2023-03-05T20:53:09.984Z,13.63
2023-03-05T20:55:55.685Z,14.75
2023-03-05T20:58:41.513Z,11.02
2023-03-05T21:01:28.600Z,10.00
2023-03-05T21:04:14.459Z,12.63
2023-03-05T21:07:00.220Z,14.07
2023-03-05T21:09:45.692Z,8.98
2023-03-05T21:12:34.539Z,14.15
2023-03-05T21:15:26.737Z,10.10
2023-03-05T21:18:12.180Z,12.43
2023-03-05T21:20:57.824Z,15.40
2023-03-05T21:23:44.313Z,10.95
2023-03-05T21:26:30.104Z,7.82
2023-03-05T21:29:15.616Z,14.18
2023-03-05T21:32:02.050Z,7.50
2023-03-05T21:34:47.478Z,10.07
2023-03-05T21:37:33.029Z,10.50
2023-03-05T21:40:19.792Z,11.38
2023-03-05T21:43:05.611Z,14.30
2023-03-05T21:45:53.696Z,15.80
2023-03-05T21:48:39.675Z,20.08
2023-03-05T21:52:09.091Z,23.95
2023-03-05T21:54:55.989Z,11.57
2023-03-05T21:57:42.852Z,11.85
2023-03-05T22:00:28.967Z,11.05
2023-03-05T22:03:14.710Z,11.40
2023-03-05T22:06:00.193Z,14.35
2023-03-05T22:08:49.780Z,12.68
2023-03-05T22:11:35.335Z,13.88
2023-03-05T22:14:21.170Z,9.93
2023-03-05T22:17:06.508Z,11.65
2023-03-05T22:19:52.060Z,10.95
2023-03-05T22:22:37.585Z,10.20
2023-03-05T22:25:23.133Z,13.52
2023-03-05T22:28:10.663Z,15.63
2023-03-05T22:30:57.030Z,18.38
2023-03-05T22:33:42.751Z,23.52
2023-03-05T22:36:28.262Z,19.20
2023-03-05T22:39:13.957Z,15.80
2023-03-05T22:41:59.388Z,11.75
2023-03-05T22:44:44.813Z,11.75
2023-03-05T22:47:31.354Z,12.63
2023-03-05T22:50:17.703Z,10.25
2023-03-05T22:53:03.601Z,10.35
2023-03-05T22:55:49.289Z,10.45
2023-03-05T22:58:35.107Z,12.48
2023-03-05T23:01:24.236Z,7.15
2023-03-05T23:04:49.481Z,8.77
2023-03-05T23:07:38.218Z,8.30
2023-03-05T23:10:27.396Z,7.55
2023-03-05T23:13:12.922Z,6.80
2023-03-05T23:15:58.443Z,9.63
2023-03-05T23:18:44.055Z,10.55
2023-03-05T23:21:29.496Z,9.70
2023-03-05T23:24:15.042Z,15.00
2023-03-05T23:27:01.026Z,10.25
2023-03-05T23:30:22.753Z,7.53
2023-03-05T23:33:15.613Z,11.30
2023-03-05T23:36:01.384Z,7.10
2023-03-05T23:38:47.769Z,6.45
2023-03-05T23:41:33.354Z,7.53
2023-03-05T23:44:20.653Z,7.40
2023-03-05T23:47:06.323Z,8.05
2023-03-05T23:49:53.486Z,9.38
2023-03-05T23:52:39.001Z,8.40
2023-03-05T23:55:30.442Z,5.57
2023-03-05T23:58:17.111Z,6.38
